AirNav   BOSE ProFlight Aviation Headset
 
 1309 users online  

CL35 Warner Springs Gliderport
Warner Springs, California, USA

GOING TO WARNER SPRINGS?


FAA INFORMATION EFFECTIVE 21 JUNE 2018

Location

FAA Identifier: CL35
Lat/Long: 33-17-04.2100N / 116-40-10.7650W
33-17.070167N / 116-40.179417W
33.2845028 / -116.6696569
(estimated)
Elevation: 2880 ft. / 878 m (estimated)
Variation: 13E (1985)
From city: 2 miles E of WARNER SPRINGS, CA
Time zone: UTC -7 (UTC -8 during Standard Time)
Zip code: 92086

Gliderport Operations

Gliderport use: Private use. Permission required prior to landing
Activation date: 10/1984
Control tower: no
ARTCC: LOS ANGELES CENTER
FSS: SAN DIEGO FLIGHT SERVICE STATION
Attendance: 0900-1700
Wind indicator: yes
Segmented circle: yes
Landing fee: yes

Gliderport Communications

UNICOM: 122.8
WX AWOS-3 at L08 (18 nm E): 126.575 (760-767-3308)
WX ASOS at RNM (19 nm SW): 132.025 (760-789-0736)

Nearby radio navigation aids

VOR radial/distance  VOR name  Freq  Var
JLIr319/9.6JULIAN VORTAC114.0015E
TRMr218/32.8THERMAL VORTAC116.2013E
PSPr186/37.1PALM SPRINGS VORTAC115.5013E
OCNr071/37.6OCEANSIDE VORTAC115.3015E
HDFr125/(39.2)HOMELAND VOR113.4014E

Gliderport Services

Runway Information

Runway 8/26

Dimensions: 3500 x 70 ft. / 1067 x 21 m
Surface: asphalt
RUNWAY 8  RUNWAY 26
Latitude: 33-17.060333N33-17.080000N
Longitude: 116-40.522667W116-39.836167W
Elevation: 2873.0 ft.2914.0 ft.
Traffic pattern: leftleft
Obstructions: none200 ft. hill, 5200 ft. from runway

Gliderport Ownership and Management from official FAA records

Ownership: Privately-owned
Owner: WARNER SPRINGS RANCH RESORT, LLC
31930 HWY 79
WARNER SPRINGS, CA 92086
Phone 760-782-4200
SKY SAILING 31930 HWY 79.
Manager: BRET WILLAT
SKY SAILING 31930 HWY 79
WARNER SPRINGS, CA 92086
Phone 760-782-0404
LEASEE.

Gliderport Operational Statistics

Aircraft based on the field: 80
Single engine airplanes: 10
Gliders airplanes: 70
    

Instrument Procedures

There are no published instrument procedures at CL35.

Some nearby airports with instrument procedures:

L08 - Borrego Valley Airport (18 nm E)
KRNM - Ramona Airport (19 nm SW)
F70 - French Valley Airport (29 nm NW)
L18 - Fallbrook Community Airpark (29 nm W)
KSEE - Gillespie Field Airport (31 nm SW)
 
Loc | Ops | Rwys | IFR | FBO | Links
Com | Nav | Svcs | Stats | Notes


 
Area around CL35 (Warner Springs Gliderport)
 
Road maps at: MapQuest Bing Google
 
Aerial photo
WARNING: Photo may not be current or correct
Aerial photo of CL35 (Warner Springs Gliderport)
Photo by Steve Lupinacci
Photo taken 27-May-2008

Do you have a better or more recent aerial photo of Warner Springs Gliderport that you would like to share? If so, please send us your photo.

 
Sectional chart

 
Airport distance calculator
Flying to Warner Springs Gliderport? Find the distance to fly.

From to CL35

Sunrise and sunset
Times for 16-Jul-2018
 Local
(UTC-7)
 Zulu
(UTC)
Morning civil twilight05:2212:22
Sunrise05:5012:50
Sunset19:5602:56
Evening civil twilight20:2403:24

Current date and time
Zulu (UTC)  16-Jul-2018 22:19:46
Local (UTC-7)  16-Jul-2018 15:19:46
 
METAR
KL08 
18nm E 
162155Z AUTO 00000KT 10SM CLR 39/12 A2980 RMK AO2
KRNM 
20nm SW 
162153Z 29009KT 10SM CLR 32/15 A2996 RMK AO2 SLP128 T03220150
KF70 
29nm NW 
162155Z AUTO 21008G14KT 170V230 10SM CLR 34/12 A2994 RMK AO1
KL18 
29nm W 
162155Z AUTO 21008G16KT 10SM CLR 28/17 A2995 RMK AO2
KSEE 
32nm SW 
162147Z VRB06KT 10SM SKC 29/16 A2993
KCRQ 
32nm W 
162153Z AUTO 25008KT 10SM CLR 22/18 A2994 RMK AO2 SLP135 T02220183
KTRM 
33nm NE 
162152Z AUTO 12006KT 10SM CLR 43/16 A2974 RMK AO2 SLP073 T04330156
KPSP 
33nm N 
162153Z VRB06KT 10SM CLR 43/12 A2980 RMK AO2 SLP085 T04330122
KNFG 
33nm W 
162155Z 22011KT 10SM FEW010 BKN200 26/19 A2993 RMK AO2 SLP132 T02610189
KNKX 
34nm SW 
162155Z 25008KT 10SM FEW100 FEW250 29/17 A2995 RMK A02 SLP133 T02890172
TAF
KCRQ 
32nm W 
161736Z 1618/1718 22006KT P6SM SCT010 SCT200 FM162000 25008KT P6SM SCT200 FM170200 VRB04KT P6SM BKN011 FM171700 VRB04KT P6SM SCT010 SCT200
KTRM 
33nm NE 
161736Z 1618/1718 13011KT P6SM SCT080 SCT200 FM170400 33007KT P6SM SCT200 FM171500 13007KT P6SM SCT250
KPSP 
33nm N 
161736Z 1618/1718 VRB04KT P6SM SCT200 FM162100 11008KT P6SM SCT090 SCT200 FM170200 32012KT P6SM SCT200 FM170800 VRB04KT P6SM SCT200
KNFG 
33nm W 
1615/1715 VRB05KT 9999 OVC011 QNH2996INS BECMG 1616/1618 22008KT 9999 SCT020 SCT080 QNH2988INS TEMPO 1620/1702 22008G16KT FM170530 VRB05KT 9999 OVC011 QNH2989INS TEMPO 1709/1715 SCT011 T25/1621Z T19/1713Z
KNKX 
34nm SW 
1615/1715 VRB05KT 9999 OVC009 QNH2994INS BECMG 1616/1618 27008KT 9999 FEW020 SCT080 QNH2989INS FM170430 VRB05KT 9999 SKC QNH2991INS BECMG 1708/1710 VRB05KT 9999 OVC008 QNH2990INS TEMPO 1710/1715 SCT009 T27/1621Z T20/1713Z
NOTAMs
Click for the latest NOTAMs
NOTAMs are issued by the DoD/FAA and will open in a separate window not controlled by AirNav.

 

 
 

Would you like to see your business listed on this page?

 If your business provides an interesting product or service to pilots, flight crews, aircraft, or users of the Warner Springs Gliderport, you should consider listing it here.  To start the listing process, click on the button below
 
Add a business
 

Other Pages about Warner Springs Gliderport

www.agcsc.org/warner_springs_info.html
 
Update a link
 
Copyright © AirNav, LLC. All rights reserved. Privacy Policy  Contact